createdAt,value
2022-09-09T00:00:13.492Z,13.12
2022-09-09T00:02:41.458Z,13.19
2022-09-09T00:05:24.115Z,13.11
2022-09-09T00:07:53.903Z,13.12
2022-09-09T00:10:46.390Z,13.11
2022-09-09T00:13:31.603Z,13.04
2022-09-09T00:16:09.822Z,13.05
2022-09-09T00:18:55.208Z,13.10
2022-09-09T00:21:32.395Z,12.99
2022-09-09T00:24:00.079Z,12.96
2022-09-09T00:26:39.308Z,12.88
2022-09-09T00:29:09.042Z,12.91
2022-09-09T00:31:35.547Z,12.69
2022-09-09T00:34:20.547Z,12.77
2022-09-09T00:36:50.419Z,12.73
2022-09-09T00:39:35.689Z,12.71
2022-09-09T00:42:15.307Z,12.65
2022-09-09T00:45:33.327Z,12.65
2022-09-09T00:48:08.059Z,12.64
2022-09-09T00:50:45.908Z,12.65
2022-09-09T00:53:39.848Z,12.67
2022-09-09T00:56:38.055Z,12.64
2022-09-09T00:59:37.392Z,12.58
2022-09-09T01:02:19.110Z,12.52
2022-09-09T01:04:46.203Z,12.53
2022-09-09T01:07:18.862Z,12.52
2022-09-09T01:10:06.804Z,12.52
2022-09-09T01:12:43.116Z,12.56
2022-09-09T01:15:11.299Z,12.36
2022-09-09T01:17:50.343Z,12.49
2022-09-09T01:20:38.707Z,12.45
2022-09-09T01:23:35.231Z,12.44
2022-09-09T01:26:13.723Z,12.39
2022-09-09T01:28:43.851Z,12.51
2022-09-09T01:31:14.504Z,12.44
2022-09-09T01:33:40.974Z,12.53
2022-09-09T01:36:24.936Z,12.57
2022-09-09T01:38:51.445Z,12.59
2022-09-09T01:41:18.183Z,12.60
2022-09-09T01:43:44.750Z,12.66
2022-09-09T01:46:13.210Z,12.60
2022-09-09T01:48:41.490Z,12.55
2022-09-09T01:51:11.444Z,12.54
2022-09-09T01:53:40.541Z,12.42
2022-09-09T01:56:35.014Z,12.43
2022-09-09T01:59:19.962Z,12.46
2022-09-09T02:02:23.951Z,12.45
2022-09-09T02:04:55.275Z,12.42
2022-09-09T02:07:36.588Z,12.38
2022-09-09T02:10:12.285Z,12.36
2022-09-09T02:12:46.920Z,12.31
2022-09-09T02:15:58.558Z,12.30
2022-09-09T02:18:34.101Z,12.22
2022-09-09T02:21:00.937Z,12.25
2022-09-09T02:23:29.208Z,12.14
2022-09-09T02:25:59.029Z,12.09
2022-09-09T02:28:29.829Z,12.01
2022-09-09T02:30:57.108Z,12.01
2022-09-09T02:33:28.124Z,12.00
2022-09-09T02:35:57.640Z,12.01
2022-09-09T02:38:29.751Z,11.82
2022-09-09T02:40:56.209Z,11.82
2022-09-09T02:43:23.192Z,11.88
2022-09-09T02:46:14.650Z,11.92
2022-09-09T02:49:00.824Z,11.87
2022-09-09T02:51:42.085Z,11.75
2022-09-09T02:54:17.920Z,11.83
2022-09-09T02:56:53.982Z,11.86
2022-09-09T02:59:21.013Z,11.84
2022-09-09T03:01:47.984Z,11.77
2022-09-09T03:04:15.038Z,11.80
2022-09-09T03:06:41.467Z,11.74
2022-09-09T03:09:09.067Z,11.75
2022-09-09T03:11:36.091Z,11.77
2022-09-09T03:14:02.996Z,11.79
2022-09-09T03:16:29.957Z,11.80
2022-09-09T03:18:56.604Z,11.68
2022-09-09T03:21:23.014Z,11.62
2022-09-09T03:23:49.516Z,11.66
2022-09-09T03:26:16.134Z,11.60
2022-09-09T03:28:43.610Z,11.62
2022-09-09T03:31:12.611Z,11.55
2022-09-09T03:33:39.179Z,11.53
2022-09-09T03:36:06.231Z,11.60
2022-09-09T03:38:33.239Z,11.55
2022-09-09T03:41:01.497Z,11.54
2022-09-09T03:43:29.305Z,11.48
2022-09-09T03:45:58.613Z,11.42
2022-09-09T03:48:26.844Z,11.41
2022-09-09T03:50:54.745Z,11.46
2022-09-09T03:53:25.652Z,11.37
2022-09-09T03:55:55.648Z,11.40
2022-09-09T03:58:25.170Z,11.37
2022-09-09T04:01:03.835Z,11.33
2022-09-09T04:03:31.462Z,11.37
2022-09-09T04:05:59.870Z,11.42
2022-09-09T04:08:26.847Z,11.43
2022-09-09T04:10:54.217Z,11.46
2022-09-09T04:13:20.903Z,11.47
2022-09-09T04:15:55.402Z,11.51
2022-09-09T04:18:22.898Z,11.49
2022-09-09T04:20:51.202Z,11.56
2022-09-09T04:23:20.043Z,11.45
2022-09-09T04:25:48.485Z,11.60
2022-09-09T04:28:15.987Z,11.63
2022-09-09T04:30:43.558Z,11.64
2022-09-09T04:33:10.909Z,11.64
2022-09-09T04:35:38.847Z,11.68
2022-09-09T04:38:08.437Z,11.71
2022-09-09T04:40:34.875Z,11.72
2022-09-09T04:43:02.466Z,11.77
2022-09-09T04:45:28.958Z,11.80
2022-09-09T04:47:56.001Z,11.84
2022-09-09T04:50:22.411Z,11.87
2022-09-09T04:52:49.533Z,11.90
2022-09-09T04:55:16.066Z,11.91
2022-09-09T04:57:42.578Z,11.96
2022-09-09T05:00:09.530Z,12.00
2022-09-09T05:02:39.693Z,12.03
2022-09-09T05:05:07.249Z,12.12
2022-09-09T05:07:33.713Z,11.96
2022-09-09T05:10:00.125Z,11.95
2022-09-09T05:12:26.817Z,12.03
2022-09-09T05:14:53.671Z,12.06
2022-09-09T05:17:20.080Z,12.16
2022-09-09T05:19:46.501Z,12.21
2022-09-09T05:22:12.967Z,12.38
2022-09-09T05:24:39.616Z,12.45
2022-09-09T05:27:07.095Z,12.50
2022-09-09T05:29:36.648Z,12.57
2022-09-09T05:32:03.291Z,12.73
2022-09-09T05:34:30.227Z,12.83
2022-09-09T05:36:56.698Z,12.85
2022-09-09T05:39:23.105Z,12.85
2022-09-09T05:41:49.482Z,12.99
2022-09-09T05:44:16.034Z,13.00
2022-09-09T05:46:42.502Z,13.00
2022-09-09T05:49:09.607Z,12.98
2022-09-09T05:51:36.217Z,12.99
2022-09-09T05:54:02.668Z,13.02
2022-09-09T05:56:30.165Z,13.09
2022-09-09T05:58:57.558Z,13.25
2022-09-09T06:01:27.568Z,13.35
2022-09-09T06:03:54.569Z,13.37
2022-09-09T06:06:25.195Z,13.51
2022-09-09T06:08:53.310Z,13.64
2022-09-09T06:11:24.929Z,13.63
2022-09-09T06:13:54.471Z,13.54
2022-09-09T06:16:26.495Z,13.37
2022-09-09T06:18:55.321Z,13.35
2022-09-09T06:21:24.578Z,13.44
2022-09-09T06:23:58.969Z,13.16
2022-09-09T06:26:35.912Z,13.13
2022-09-09T06:29:04.910Z,13.05
2022-09-09T06:31:35.257Z,13.22
2022-09-09T06:34:02.328Z,13.18
2022-09-09T06:36:31.951Z,13.22
2022-09-09T06:38:58.746Z,13.34
2022-09-09T06:41:28.094Z,13.32
2022-09-09T06:43:56.491Z,13.40
2022-09-09T06:46:28.945Z,13.39
2022-09-09T06:48:57.073Z,13.48
2022-09-09T06:51:24.617Z,13.38
2022-09-09T06:53:54.571Z,13.43
2022-09-09T06:56:25.225Z,13.58
2022-09-09T06:58:53.527Z,13.66
2022-09-09T07:01:22.725Z,13.73
2022-09-09T07:03:51.541Z,13.72
2022-09-09T07:06:21.299Z,13.75
2022-09-09T07:08:56.930Z,13.73
2022-09-09T07:11:26.783Z,13.77
2022-09-09T07:13:54.054Z,13.74
2022-09-09T07:16:24.672Z,13.79
2022-09-09T07:18:52.337Z,13.88
2022-09-09T07:21:20.262Z,13.90
2022-09-09T07:23:46.670Z,13.98
2022-09-09T07:26:15.931Z,14.03
2022-09-09T07:28:43.040Z,14.12
2022-09-09T07:31:25.052Z,14.14
2022-09-09T07:33:51.630Z,14.40
2022-09-09T07:36:19.906Z,14.52
2022-09-09T07:38:48.393Z,14.66
2022-09-09T07:41:18.066Z,14.73
2022-09-09T07:43:46.330Z,14.81
2022-09-09T07:46:14.483Z,14.91
2022-09-09T07:48:46.826Z,14.95
2022-09-09T07:51:20.751Z,15.16
2022-09-09T07:53:47.826Z,15.25
2022-09-09T07:56:19.948Z,15.24
2022-09-09T07:58:48.063Z,15.13
2022-09-09T08:01:23.894Z,15.18
2022-09-09T08:04:06.578Z,14.98
2022-09-09T08:06:36.914Z,14.76
2022-09-09T08:09:04.804Z,14.98
2022-09-09T08:11:35.373Z,15.19
2022-09-09T08:14:05.431Z,15.02
2022-09-09T08:16:34.306Z,15.16
2022-09-09T08:19:01.737Z,15.22
2022-09-09T08:21:30.435Z,15.51
2022-09-09T08:23:58.455Z,15.68
2022-09-09T08:26:30.606Z,15.97
2022-09-09T08:28:59.241Z,16.30
2022-09-09T08:31:29.028Z,16.63
2022-09-09T08:33:56.988Z,16.85
2022-09-09T08:36:27.162Z,17.14
2022-09-09T08:38:55.738Z,17.06
2022-09-09T08:41:40.927Z,17.11
2022-09-09T08:44:20.933Z,17.20
2022-09-09T08:47:22.007Z,16.73
2022-09-09T08:49:54.752Z,17.00
2022-09-09T08:52:28.151Z,17.14
2022-09-09T08:55:03.295Z,16.91
2022-09-09T08:57:32.538Z,16.91
2022-09-09T08:59:59.478Z,16.82
2022-09-09T09:02:36.115Z,16.97
2022-09-09T09:05:24.637Z,17.14
2022-09-09T09:08:21.106Z,17.00
2022-09-09T09:10:50.771Z,17.02
2022-09-09T09:13:48.032Z,17.33
2022-09-09T09:16:23.166Z,17.45
2022-09-09T09:18:50.423Z,17.62
2022-09-09T09:21:35.117Z,18.10
2022-09-09T09:24:02.154Z,18.02
2022-09-09T09:26:36.498Z,18.12
2022-09-09T09:29:13.130Z,18.11
2022-09-09T09:31:39.747Z,18.45
2022-09-09T09:34:06.135Z,18.45
2022-09-09T09:36:45.615Z,18.70
2022-09-09T09:42:14.939Z,18.54
2022-09-09T09:44:43.064Z,18.74
2022-09-09T09:47:17.166Z,18.59
2022-09-09T09:49:53.262Z,18.32
2022-09-09T09:52:24.965Z,18.51
2022-09-09T09:54:53.556Z,18.42
2022-09-09T09:57:30.168Z,18.56
2022-09-09T10:00:18.898Z,18.36
2022-09-09T10:02:47.283Z,18.69
2022-09-09T10:05:15.204Z,18.71
2022-09-09T10:07:41.721Z,18.93
2022-09-09T10:10:16.606Z,18.90
2022-09-09T10:13:06.025Z,18.90
2022-09-09T10:15:44.673Z,19.14
2022-09-09T10:18:28.113Z,19.19
2022-09-09T10:21:21.696Z,19.07
2022-09-09T10:24:09.938Z,19.20
2022-09-09T10:26:40.938Z,19.43
2022-09-09T10:29:25.902Z,19.55
2022-09-09T10:32:07.526Z,19.93
2022-09-09T10:34:53.259Z,19.62
2022-09-09T10:37:45.755Z,19.56
2022-09-09T10:40:33.757Z,19.67
2022-09-09T10:43:25.052Z,19.86
2022-09-09T10:46:20.910Z,19.96
2022-09-09T10:49:24.375Z,20.00
2022-09-09T10:52:11.896Z,20.10
2022-09-09T10:54:47.658Z,20.33
2022-09-09T10:57:37.437Z,19.92
2022-09-09T11:00:17.901Z,19.79
2022-09-09T11:02:44.378Z,20.42
2022-09-09T11:05:42.864Z,20.02
2022-09-09T11:08:18.142Z,20.27
2022-09-09T11:11:20.223Z,20.63
2022-09-09T11:13:52.600Z,20.40
2022-09-09T11:16:32.242Z,20.28
2022-09-09T11:19:12.127Z,20.38
2022-09-09T11:21:44.604Z,20.46
2022-09-09T11:24:22.670Z,20.50
2022-09-09T11:26:53.612Z,20.74
2022-09-09T11:29:45.260Z,20.75
2022-09-09T11:32:24.034Z,21.37
2022-09-09T11:35:16.007Z,21.64
2022-09-09T11:37:48.727Z,20.57
2022-09-09T11:40:20.607Z,20.58
2022-09-09T11:42:50.754Z,20.72
2022-09-09T11:45:19.544Z,20.42
2022-09-09T11:47:56.806Z,20.32
2022-09-09T11:50:23.764Z,20.38
2022-09-09T11:52:50.719Z,20.75
2022-09-09T11:55:27.571Z,20.49
2022-09-09T11:58:01.762Z,20.36
2022-09-09T12:00:41.303Z,20.56
2022-09-09T12:03:36.818Z,20.57
2022-09-09T12:06:33.616Z,20.11
2022-09-09T12:09:24.498Z,20.73
2022-09-09T12:11:51.560Z,20.39
2022-09-09T12:14:23.754Z,20.37
2022-09-09T12:16:50.929Z,20.62
2022-09-09T12:19:26.170Z,21.50
2022-09-09T12:22:08.614Z,22.00
2022-09-09T12:24:46.319Z,21.69
2022-09-09T12:27:23.274Z,21.17
2022-09-09T12:30:08.125Z,21.79
2022-09-09T12:32:34.551Z,21.22
2022-09-09T12:35:27.114Z,21.51
2022-09-09T12:37:59.015Z,21.42
2022-09-09T12:40:28.233Z,21.11
2022-09-09T12:42:56.263Z,21.35
2022-09-09T12:45:27.095Z,22.08
2022-09-09T12:48:01.171Z,22.06
2022-09-09T12:50:33.903Z,22.20
2022-09-09T12:53:11.039Z,22.40
2022-09-09T12:55:39.611Z,21.80
2022-09-09T12:58:07.899Z,22.02
2022-09-09T13:00:35.878Z,22.38
2022-09-09T13:03:15.625Z,21.99
2022-09-09T13:05:42.142Z,22.20
2022-09-09T13:08:13.605Z,21.22
2022-09-09T13:11:09.898Z,21.53
2022-09-09T13:13:39.197Z,21.92
2022-09-09T13:16:18.285Z,21.24
2022-09-09T13:18:44.886Z,20.94
2022-09-09T13:21:11.459Z,20.80
2022-09-09T13:23:38.858Z,21.48
2022-09-09T13:26:27.530Z,21.56
2022-09-09T13:28:55.019Z,21.23
2022-09-09T13:31:30.191Z,22.06
2022-09-09T13:33:56.999Z,22.03
2022-09-09T13:36:35.843Z,22.23
2022-09-09T13:39:04.917Z,22.07
2022-09-09T13:41:37.624Z,21.86
2022-09-09T13:44:07.394Z,21.60
2022-09-09T13:46:43.333Z,21.93
2022-09-09T13:49:12.766Z,21.80
2022-09-09T13:51:47.846Z,21.99
2022-09-09T13:54:16.558Z,21.74
2022-09-09T13:56:44.255Z,21.92
2022-09-09T13:59:16.818Z,21.24
2022-09-09T14:01:43.558Z,21.18
2022-09-09T14:04:11.033Z,21.15
2022-09-09T14:06:39.240Z,21.24
2022-09-09T14:09:13.552Z,20.89
2022-09-09T14:11:41.542Z,20.78
2022-09-09T14:14:08.294Z,20.77
2022-09-09T14:16:35.254Z,20.86
2022-09-09T14:19:02.086Z,20.75
2022-09-09T14:21:29.452Z,20.80
2022-09-09T14:23:55.951Z,20.57
2022-09-09T14:26:22.934Z,20.43
2022-09-09T14:28:57.681Z,20.25
2022-09-09T14:31:25.329Z,20.03
2022-09-09T14:33:52.331Z,20.01
2022-09-09T14:36:19.060Z,19.92
2022-09-09T14:38:45.539Z,20.00
2022-09-09T14:41:14.690Z,19.94
2022-09-09T14:43:41.324Z,19.95
2022-09-09T14:46:13.829Z,19.82
2022-09-09T14:48:44.947Z,19.87
2022-09-09T14:51:17.850Z,19.63
2022-09-09T14:53:45.293Z,19.62
2022-09-09T14:56:15.153Z,19.68
2022-09-09T14:58:42.006Z,19.64
2022-09-09T15:01:16.542Z,19.57
2022-09-09T15:03:49.743Z,19.75
2022-09-09T15:06:16.127Z,19.69
2022-09-09T15:08:44.751Z,19.80
2022-09-09T15:11:12.961Z,19.62
2022-09-09T15:13:41.304Z,19.66
2022-09-09T15:16:16.213Z,19.26
2022-09-09T15:18:43.954Z,18.86
2022-09-09T15:21:11.420Z,18.76
2022-09-09T15:23:38.718Z,18.73
2022-09-09T15:26:05.853Z,18.88
2022-09-09T15:28:38.583Z,19.07
2022-09-09T15:31:13.131Z,19.06
2022-09-09T15:33:39.659Z,19.16
2022-09-09T15:36:16.257Z,19.07
2022-09-09T15:38:42.807Z,19.17
2022-09-09T15:41:09.254Z,19.06
2022-09-09T15:43:35.738Z,19.19
2022-09-09T15:46:25.352Z,19.28
2022-09-09T15:48:53.881Z,19.31
2022-09-09T15:51:41.315Z,19.30
2022-09-09T15:54:08.208Z,19.38
2022-09-09T15:56:35.765Z,19.30
2022-09-09T15:59:06.821Z,19.32
2022-09-09T16:01:34.418Z,19.53
2022-09-09T16:04:01.278Z,19.64
2022-09-09T16:06:29.613Z,19.47
2022-09-09T16:08:57.683Z,19.38
2022-09-09T16:11:26.423Z,19.36
2022-09-09T16:13:54.321Z,19.14
2022-09-09T16:16:24.726Z,19.04
2022-09-09T16:18:56.518Z,19.09
2022-09-09T16:21:35.324Z,18.64
2022-09-09T16:24:03.587Z,18.63
2022-09-09T16:26:32.388Z,18.57
2022-09-09T16:28:59.930Z,18.50
2022-09-09T16:31:27.769Z,18.31
2022-09-09T16:33:54.785Z,18.36
2022-09-09T16:36:23.960Z,18.49
2022-09-09T16:38:58.492Z,18.45
2022-09-09T16:41:26.434Z,18.40
2022-09-09T16:43:54.983Z,18.39
2022-09-09T16:46:22.089Z,18.42
2022-09-09T16:48:50.160Z,18.39
2022-09-09T16:51:24.354Z,18.22
2022-09-09T16:53:51.508Z,18.23
2022-09-09T16:56:21.174Z,17.87
2022-09-09T16:58:53.333Z,17.39
2022-09-09T17:01:19.773Z,17.39
2022-09-09T17:03:46.319Z,17.27
2022-09-09T17:06:15.231Z,17.02
2022-09-09T17:08:42.687Z,17.09
2022-09-09T17:11:12.022Z,16.98
2022-09-09T17:13:38.652Z,16.95
2022-09-09T17:16:06.353Z,16.83
2022-09-09T17:18:32.848Z,16.92
2022-09-09T17:21:07.681Z,16.97
2022-09-09T17:23:39.013Z,17.03
2022-09-09T17:26:12.163Z,16.88
2022-09-09T17:28:40.071Z,16.76
2022-09-09T17:31:08.340Z,16.80
2022-09-09T17:33:37.490Z,16.68
2022-09-09T17:36:16.030Z,16.54
2022-09-09T17:38:44.208Z,16.32
2022-09-09T17:41:17.858Z,16.44
2022-09-09T17:43:44.840Z,16.40
2022-09-09T17:46:22.983Z,16.40
2022-09-09T17:48:51.698Z,16.32
2022-09-09T17:51:28.211Z,16.19
2022-09-09T17:53:56.229Z,15.92
2022-09-09T17:56:24.582Z,15.93
2022-09-09T17:58:51.800Z,15.99
2022-09-09T18:01:24.361Z,15.98
2022-09-09T18:03:52.012Z,15.98
2022-09-09T18:06:24.216Z,15.87
2022-09-09T18:08:53.569Z,15.79
2022-09-09T18:11:21.886Z,15.72
2022-09-09T18:13:50.311Z,15.66
2022-09-09T18:16:18.641Z,15.68
2022-09-09T18:18:46.184Z,15.73
2022-09-09T18:21:13.210Z,15.70
2022-09-09T18:23:42.431Z,15.65
2022-09-09T18:26:12.050Z,15.56
2022-09-09T18:28:39.973Z,15.51
2022-09-09T18:31:11.700Z,15.49
2022-09-09T18:33:41.019Z,15.51
2022-09-09T18:36:14.962Z,15.50
2022-09-09T18:38:42.212Z,15.33
2022-09-09T18:41:22.286Z,15.29
2022-09-09T18:43:50.378Z,15.28
2022-09-09T18:46:18.321Z,15.27
2022-09-09T18:48:46.307Z,15.33
2022-09-09T18:51:15.004Z,15.22
2022-09-09T18:53:41.967Z,15.22
2022-09-09T18:56:12.227Z,15.23
2022-09-09T18:58:40.094Z,15.16
2022-09-09T19:01:12.431Z,15.25
2022-09-09T19:03:39.602Z,15.29
2022-09-09T19:06:14.742Z,15.36
2022-09-09T19:08:42.838Z,15.38
2022-09-09T19:11:13.402Z,15.43
2022-09-09T19:13:39.888Z,15.41
2022-09-09T19:16:14.575Z,15.37
2022-09-09T19:18:44.811Z,15.36
2022-09-09T19:21:17.601Z,15.37
2022-09-09T19:23:46.061Z,15.24
2022-09-09T19:26:17.043Z,15.15
2022-09-09T19:28:50.036Z,15.19
2022-09-09T19:31:19.023Z,15.26
2022-09-09T19:33:47.873Z,15.30
2022-09-09T19:36:18.253Z,15.27
2022-09-09T19:38:48.446Z,15.37
2022-09-09T19:41:20.744Z,15.46
2022-09-09T19:43:47.212Z,15.45
2022-09-09T19:46:15.527Z,15.44
2022-09-09T19:48:42.974Z,15.51
2022-09-09T19:51:12.137Z,15.55
2022-09-09T19:53:41.679Z,15.41
2022-09-09T19:56:09.387Z,15.49
2022-09-09T19:58:38.536Z,15.54
2022-09-09T20:01:12.112Z,15.57
2022-09-09T20:03:40.448Z,15.58
2022-09-09T20:06:08.416Z,15.50
2022-09-09T20:08:36.412Z,15.55
2022-09-09T20:11:03.341Z,15.47
2022-09-09T20:13:31.134Z,15.44
2022-09-09T20:16:04.115Z,15.44
2022-09-09T20:18:33.527Z,15.17
2022-09-09T20:21:01.749Z,15.16
2022-09-09T20:23:29.946Z,15.18
2022-09-09T20:26:00.406Z,15.05
2022-09-09T20:28:26.785Z,14.92
2022-09-09T20:30:53.855Z,14.71
2022-09-09T20:33:21.419Z,14.81
2022-09-09T20:35:48.756Z,14.70
2022-09-09T20:38:15.169Z,14.69
2022-09-09T20:40:44.550Z,14.71
2022-09-09T20:43:13.027Z,14.56
2022-09-09T20:45:39.583Z,14.59
2022-09-09T20:48:07.296Z,14.40
2022-09-09T20:50:36.666Z,14.52
2022-09-09T20:53:03.874Z,14.41
2022-09-09T20:55:31.320Z,14.42
2022-09-09T20:57:58.449Z,14.22
2022-09-09T21:00:24.887Z,14.30
2022-09-09T21:02:51.332Z,14.15
2022-09-09T21:05:23.909Z,13.99
2022-09-09T21:07:50.807Z,14.05
2022-09-09T21:10:18.229Z,14.03
2022-09-09T21:12:45.058Z,13.94
2022-09-09T21:15:11.700Z,13.92
2022-09-09T21:17:40.218Z,13.93
2022-09-09T21:20:07.297Z,13.97
2022-09-09T21:22:33.694Z,13.92
2022-09-09T21:25:00.109Z,13.82
2022-09-09T21:27:26.525Z,13.76
2022-09-09T21:29:53.031Z,13.70
2022-09-09T21:32:21.369Z,13.66
2022-09-09T21:34:47.762Z,13.72
2022-09-09T21:37:14.225Z,13.67
2022-09-09T21:39:40.724Z,13.69
2022-09-09T21:42:07.172Z,13.66
2022-09-09T21:44:33.637Z,13.75
2022-09-09T21:47:00.160Z,13.76
2022-09-09T21:49:27.307Z,13.71
2022-09-09T21:51:53.886Z,13.71
2022-09-09T21:54:20.338Z,13.82
2022-09-09T21:56:49.579Z,13.77
2022-09-09T21:59:15.972Z,13.85
2022-09-09T22:01:43.065Z,13.79
2022-09-09T22:04:09.609Z,13.73
2022-09-09T22:06:36.049Z,13.59
2022-09-09T22:09:03.510Z,13.51
2022-09-09T22:11:31.300Z,13.62
2022-09-09T22:13:57.750Z,13.67
2022-09-09T22:16:25.463Z,13.51
2022-09-09T22:19:00.486Z,13.53
2022-09-09T22:21:30.109Z,13.57
2022-09-09T22:23:58.973Z,13.57
2022-09-09T22:26:27.515Z,13.60
2022-09-09T22:28:54.067Z,13.68
2022-09-09T22:31:22.648Z,13.71
2022-09-09T22:33:49.454Z,13.80
2022-09-09T22:36:15.990Z,13.81
2022-09-09T22:38:42.865Z,13.85
2022-09-09T22:41:10.002Z,13.80
2022-09-09T22:43:36.680Z,13.80
2022-09-09T22:46:03.733Z,13.75
2022-09-09T22:48:34.437Z,13.75
2022-09-09T22:51:12.771Z,13.76
2022-09-09T22:53:44.596Z,13.66
2022-09-09T22:56:19.488Z,13.69
2022-09-09T22:58:46.884Z,13.74
2022-09-09T23:01:16.463Z,13.66
2022-09-09T23:03:46.275Z,13.58
2022-09-09T23:06:22.119Z,13.46
2022-09-09T23:08:55.908Z,13.55
2022-09-09T23:11:28.043Z,13.49
2022-09-09T23:13:55.988Z,13.46
2022-09-09T23:16:26.991Z,13.38
2022-09-09T23:18:55.213Z,13.40
2022-09-09T23:21:23.758Z,13.31
2022-09-09T23:23:53.565Z,13.27
2022-09-09T23:26:20.879Z,13.18
2022-09-09T23:28:49.106Z,13.18
2022-09-09T23:31:20.057Z,13.25
2022-09-09T23:33:46.734Z,13.21
2022-09-09T23:36:16.435Z,13.18
2022-09-09T23:38:44.356Z,13.22
2022-09-09T23:41:13.697Z,13.19
2022-09-09T23:43:40.616Z,13.15
2022-09-09T23:46:08.876Z,13.18
2022-09-09T23:48:38.641Z,13.17
2022-09-09T23:51:11.927Z,13.17
2022-09-09T23:53:40.608Z,13.17
2022-09-09T23:56:07.098Z,13.16
2022-09-09T23:58:34.392Z,13.08
